sensor_id;sensor_type;location;lat;lon;timestamp;P1;durP1;ratioP1;P2;durP2;ratioP2
57291;SDS011;43144;50.972;18.220;2023-02-08T00:08:10;86.70;;;57.00;;
57291;SDS011;43144;50.972;18.220;2023-02-08T00:17:59;57.90;;;44.40;;
57291;SDS011;43144;50.972;18.220;2023-02-08T00:27:48;59.10;;;46.00;;
57291;SDS011;43144;50.972;18.220;2023-02-08T00:37:38;79.20;;;58.00;;
57291;SDS011;43144;50.972;18.220;2023-02-08T00:47:29;76.10;;;57.20;;
57291;SDS011;43144;50.972;18.220;2023-02-08T00:57:19;51.40;;;32.60;;
57291;SDS011;43144;50.972;18.220;2023-02-08T01:07:08;80.30;;;59.80;;
57291;SDS011;43144;50.972;18.220;2023-02-08T01:16:58;86.60;;;58.90;;
57291;SDS011;43144;50.972;18.220;2023-02-08T01:26:47;47.80;;;34.00;;
57291;SDS011;43144;50.972;18.220;2023-02-08T01:36:38;75.90;;;55.80;;
57291;SDS011;43144;50.972;18.220;2023-02-08T01:46:30;73.50;;;57.20;;
57291;SDS011;43144;50.972;18.220;2023-02-08T01:56:22;70.50;;;55.30;;
57291;SDS011;43144;50.972;18.220;2023-02-08T02:06:15;74.40;;;56.50;;
57291;SDS011;43144;50.972;18.220;2023-02-08T02:16:07;74.20;;;57.40;;
57291;SDS011;43144;50.972;18.220;2023-02-08T02:34:32;77.40;;;60.00;;
57291;SDS011;43144;50.972;18.220;2023-02-08T02:44:38;81.20;;;60.20;;
57291;SDS011;43144;50.972;18.220;2023-02-08T02:54:39;78.10;;;56.40;;
57291;SDS011;43144;50.972;18.220;2023-02-08T03:04:48;82.70;;;59.70;;
57291;SDS011;43144;50.972;18.220;2023-02-08T03:14:50;86.30;;;60.80;;
57291;SDS011;43144;50.972;18.220;2023-02-08T03:24:53;72.70;;;56.10;;
57291;SDS011;43144;50.972;18.220;2023-02-08T03:34:51;82.20;;;57.80;;
57291;SDS011;43144;50.972;18.220;2023-02-08T03:44:45;102.60;;;61.30;;
57291;SDS011;43144;50.972;18.220;2023-02-08T03:54:40;89.10;;;66.80;;
57291;SDS011;43144;50.972;18.220;2023-02-08T04:04:35;85.20;;;64.80;;
57291;SDS011;43144;50.972;18.220;2023-02-08T04:14:27;108.70;;;73.40;;
57291;SDS011;43144;50.972;18.220;2023-02-08T04:24:16;103.10;;;71.80;;
57291;SDS011;43144;50.972;18.220;2023-02-08T04:34:05;103.00;;;70.40;;
57291;SDS011;43144;50.972;18.220;2023-02-08T04:43:55;94.10;;;70.40;;
57291;SDS011;43144;50.972;18.220;2023-02-08T04:53:46;95.80;;;70.10;;
57291;SDS011;43144;50.972;18.220;2023-02-08T05:03:35;105.50;;;72.50;;
57291;SDS011;43144;50.972;18.220;2023-02-08T05:13:25;110.60;;;76.60;;
57291;SDS011;43144;50.972;18.220;2023-02-08T05:23:21;87.20;;;66.40;;
57291;SDS011;43144;50.972;18.220;2023-02-08T05:33:11;79.20;;;61.20;;
57291;SDS011;43144;50.972;18.220;2023-02-08T05:43:01;58.40;;;36.60;;
57291;SDS011;43144;50.972;18.220;2023-02-08T05:52:51;49.90;;;33.90;;
57291;SDS011;43144;50.972;18.220;2023-02-08T06:00:14;110.10;;;77.90;;
57291;SDS011;43144;50.972;18.220;2023-02-08T06:10:05;146.30;;;113.30;;
57291;SDS011;43144;50.972;18.220;2023-02-08T06:19:55;98.00;;;57.50;;
57291;SDS011;43144;50.972;18.220;2023-02-08T06:29:44;67.80;;;45.70;;
57291;SDS011;43144;50.972;18.220;2023-02-08T06:39:34;79.30;;;54.00;;
57291;SDS011;43144;50.972;18.220;2023-02-08T06:49:23;65.70;;;50.60;;
57291;SDS011;43144;50.972;18.220;2023-02-08T06:59:13;71.70;;;48.40;;
57291;SDS011;43144;50.972;18.220;2023-02-08T07:09:03;42.80;;;38.00;;
57291;SDS011;43144;50.972;18.220;2023-02-08T07:18:52;48.20;;;39.90;;
57291;SDS011;43144;50.972;18.220;2023-02-08T07:28:41;60.10;;;44.70;;
57291;SDS011;43144;50.972;18.220;2023-02-08T07:38:32;59.20;;;42.40;;
57291;SDS011;43144;50.972;18.220;2023-02-08T07:48:22;64.20;;;43.70;;
57291;SDS011;43144;50.972;18.220;2023-02-08T07:58:12;56.90;;;44.90;;
57291;SDS011;43144;50.972;18.220;2023-02-08T08:08:02;67.60;;;44.50;;
57291;SDS011;43144;50.972;18.220;2023-02-08T08:17:52;56.90;;;41.10;;
57291;SDS011;43144;50.972;18.220;2023-02-08T08:27:42;44.60;;;37.30;;
57291;SDS011;43144;50.972;18.220;2023-02-08T08:37:34;56.70;;;42.20;;
57291;SDS011;43144;50.972;18.220;2023-02-08T08:47:24;46.70;;;41.60;;
57291;SDS011;43144;50.972;18.220;2023-02-08T08:57:13;52.80;;;28.90;;
57291;SDS011;43144;50.972;18.220;2023-02-08T09:07:03;60.60;;;45.70;;
57291;SDS011;43144;50.972;18.220;2023-02-08T09:16:53;54.50;;;43.50;;
57291;SDS011;43144;50.972;18.220;2023-02-08T09:26:43;57.60;;;46.10;;
57291;SDS011;43144;50.972;18.220;2023-02-08T09:36:38;60.90;;;47.50;;
57291;SDS011;43144;50.972;18.220;2023-02-08T09:46:40;51.80;;;42.00;;
57291;SDS011;43144;50.972;18.220;2023-02-08T09:56:33;45.30;;;40.20;;
57291;SDS011;43144;50.972;18.220;2023-02-08T10:06:27;54.60;;;44.00;;
57291;SDS011;43144;50.972;18.220;2023-02-08T10:16:35;57.30;;;45.10;;
57291;SDS011;43144;50.972;18.220;2023-02-08T10:26:43;55.80;;;40.40;;
57291;SDS011;43144;50.972;18.220;2023-02-08T10:37:13;49.70;;;38.90;;
57291;SDS011;43144;50.972;18.220;2023-02-08T10:47:11;52.60;;;38.70;;
57291;SDS011;43144;50.972;18.220;2023-02-08T11:04:25;51.90;;;35.40;;
57291;SDS011;43144;50.972;18.220;2023-02-08T11:14:22;36.90;;;31.80;;
57291;SDS011;43144;50.972;18.220;2023-02-08T11:24:24;29.20;;;26.10;;
57291;SDS011;43144;50.972;18.220;2023-02-08T11:34:25;25.20;;;22.60;;
57291;SDS011;43144;50.972;18.220;2023-02-08T11:44:19;30.00;;;25.30;;
57291;SDS011;43144;50.972;18.220;2023-02-08T12:04:23;23.00;;;20.80;;
57291;SDS011;43144;50.972;18.220;2023-02-08T12:14:28;24.50;;;18.90;;
57291;SDS011;43144;50.972;18.220;2023-02-08T12:30:16;18.50;;;16.60;;
57291;SDS011;43144;50.972;18.220;2023-02-08T12:40:43;18.50;;;16.60;;
57291;SDS011;43144;50.972;18.220;2023-02-08T12:50:47;23.20;;;17.70;;
57291;SDS011;43144;50.972;18.220;2023-02-08T13:00:47;21.20;;;18.90;;
57291;SDS011;43144;50.972;18.220;2023-02-08T13:10:42;18.60;;;16.80;;
57291;SDS011;43144;50.972;18.220;2023-02-08T13:20:42;13.80;;;12.50;;
57291;SDS011;43144;50.972;18.220;2023-02-08T13:30:41;7.00;;;6.40;;
57291;SDS011;43144;50.972;18.220;2023-02-08T13:40:43;16.80;;;15.20;;
57291;SDS011;43144;50.972;18.220;2023-02-08T13:50:45;27.40;;;16.20;;
57291;SDS011;43144;50.972;18.220;2023-02-08T14:01:05;14.10;;;12.70;;
57291;SDS011;43144;50.972;18.220;2023-02-08T14:11:10;12.80;;;11.50;;
57291;SDS011;43144;50.972;18.220;2023-02-08T14:21:25;11.60;;;10.60;;
57291;SDS011;43144;50.972;18.220;2023-02-08T14:31:24;19.20;;;16.90;;
57291;SDS011;43144;50.972;18.220;2023-02-08T14:41:48;35.10;;;24.80;;
57291;SDS011;43144;50.972;18.220;2023-02-08T14:59:53;13.80;;;11.90;;
57291;SDS011;43144;50.972;18.220;2023-02-08T15:09:51;27.50;;;19.10;;
57291;SDS011;43144;50.972;18.220;2023-02-08T15:19:54;47.90;;;32.60;;
57291;SDS011;43144;50.972;18.220;2023-02-08T15:29:55;18.70;;;16.90;;
57291;SDS011;43144;50.972;18.220;2023-02-08T15:39:47;21.30;;;19.10;;
57291;SDS011;43144;50.972;18.220;2023-02-08T15:49:41;34.50;;;27.80;;
57291;SDS011;43144;50.972;18.220;2023-02-08T15:59:42;24.50;;;22.10;;
57291;SDS011;43144;50.972;18.220;2023-02-08T16:09:46;59.90;;;36.10;;
57291;SDS011;43144;50.972;18.220;2023-02-08T16:19:51;26.90;;;22.80;;
57291;SDS011;43144;50.972;18.220;2023-02-08T16:30:05;52.20;;;36.10;;
57291;SDS011;43144;50.972;18.220;2023-02-08T16:40:08;36.00;;;26.30;;
57291;SDS011;43144;50.972;18.220;2023-02-08T16:50:55;38.60;;;32.70;;
57291;SDS011;43144;50.972;18.220;2023-02-08T17:00:47;38.40;;;30.30;;
57291;SDS011;43144;50.972;18.220;2023-02-08T17:10:39;61.80;;;37.00;;
57291;SDS011;43144;50.972;18.220;2023-02-08T17:20:34;50.90;;;36.80;;
57291;SDS011;43144;50.972;18.220;2023-02-08T17:30:27;29.80;;;22.10;;
57291;SDS011;43144;50.972;18.220;2023-02-08T17:40:18;59.10;;;38.20;;
57291;SDS011;43144;50.972;18.220;2023-02-08T17:50:13;52.10;;;36.40;;
57291;SDS011;43144;50.972;18.220;2023-02-08T18:00:07;51.90;;;38.30;;
57291;SDS011;43144;50.972;18.220;2023-02-08T18:09:59;63.70;;;44.70;;
57291;SDS011;43144;50.972;18.220;2023-02-08T18:19:50;63.00;;;41.10;;
57291;SDS011;43144;50.972;18.220;2023-02-08T18:37:00;74.90;;;47.70;;
57291;SDS011;43144;50.972;18.220;2023-02-08T18:46:51;119.20;;;57.20;;
57291;SDS011;43144;50.972;18.220;2023-02-08T18:56:42;83.10;;;48.00;;
57291;SDS011;43144;50.972;18.220;2023-02-08T19:06:33;64.90;;;43.90;;
57291;SDS011;43144;50.972;18.220;2023-02-08T19:16:25;93.60;;;49.30;;
57291;SDS011;43144;50.972;18.220;2023-02-08T19:26:17;83.90;;;53.50;;
57291;SDS011;43144;50.972;18.220;2023-02-08T19:36:09;108.10;;;59.40;;
57291;SDS011;43144;50.972;18.220;2023-02-08T19:46:06;77.20;;;42.70;;
57291;SDS011;43144;50.972;18.220;2023-02-08T19:55:57;78.00;;;48.30;;
57291;SDS011;43144;50.972;18.220;2023-02-08T20:05:49;100.10;;;61.20;;
57291;SDS011;43144;50.972;18.220;2023-02-08T20:15:40;96.30;;;58.60;;
57291;SDS011;43144;50.972;18.220;2023-02-08T20:25:32;113.10;;;66.80;;
57291;SDS011;43144;50.972;18.220;2023-02-08T20:35:22;70.30;;;50.80;;
57291;SDS011;43144;50.972;18.220;2023-02-08T20:45:11;68.40;;;45.20;;
57291;SDS011;43144;50.972;18.220;2023-02-08T20:55:01;58.50;;;44.50;;
57291;SDS011;43144;50.972;18.220;2023-02-08T21:04:50;62.40;;;43.50;;
57291;SDS011;43144;50.972;18.220;2023-02-08T21:14:40;37.10;;;27.60;;
57291;SDS011;43144;50.972;18.220;2023-02-08T21:24:29;72.40;;;48.60;;
57291;SDS011;43144;50.972;18.220;2023-02-08T21:34:19;80.60;;;49.10;;
57291;SDS011;43144;50.972;18.220;2023-02-08T21:44:09;74.90;;;51.40;;
57291;SDS011;43144;50.972;18.220;2023-02-08T21:53:58;82.50;;;53.70;;
57291;SDS011;43144;50.972;18.220;2023-02-08T22:03:48;80.90;;;54.80;;
57291;SDS011;43144;50.972;18.220;2023-02-08T22:13:37;85.10;;;55.60;;
57291;SDS011;43144;50.972;18.220;2023-02-08T22:23:31;89.20;;;61.30;;
57291;SDS011;43144;50.972;18.220;2023-02-08T22:33:20;81.50;;;59.20;;
57291;SDS011;43144;50.972;18.220;2023-02-08T22:43:10;88.70;;;61.10;;
57291;SDS011;43144;50.972;18.220;2023-02-08T22:52:59;87.60;;;59.70;;
57291;SDS011;43144;50.972;18.220;2023-02-08T23:02:48;102.40;;;66.00;;
57291;SDS011;43144;50.972;18.220;2023-02-08T23:12:38;89.60;;;56.20;;
57291;SDS011;43144;50.972;18.220;2023-02-08T23:22:30;86.70;;;63.80;;
57291;SDS011;43144;50.972;18.220;2023-02-08T23:32:19;87.30;;;56.60;;
57291;SDS011;43144;50.972;18.220;2023-02-08T23:42:09;91.00;;;54.50;;
57291;SDS011;43144;50.972;18.220;2023-02-08T23:51:59;107.20;;;56.10;;
